createdAt,value
2024-05-09T00:00:54.235Z,69.30
2024-05-09T00:03:47.038Z,68.62
2024-05-09T00:06:18.548Z,68.90
2024-05-09T00:08:50.247Z,69.18
2024-05-09T00:11:23.189Z,69.87
2024-05-09T00:13:54.333Z,70.49
2024-05-09T00:16:25.765Z,69.17
2024-05-09T00:18:56.851Z,69.43
2024-05-09T00:21:28.285Z,69.63
2024-05-09T00:23:59.280Z,69.57
2024-05-09T00:26:30.724Z,69.51
2024-05-09T00:29:01.869Z,69.61
2024-05-09T00:31:33.236Z,69.36
2024-05-09T00:34:04.420Z,67.45
2024-05-09T00:36:35.994Z,66.30
2024-05-09T00:39:07.047Z,66.18
2024-05-09T00:41:39.676Z,68.20
2024-05-09T00:44:11.142Z,68.43
2024-05-09T00:46:43.009Z,69.55
2024-05-09T00:49:15.985Z,70.27
2024-05-09T00:51:47.392Z,69.75
2024-05-09T00:54:20.092Z,69.42
2024-05-09T00:56:53.128Z,69.50
2024-05-09T00:59:24.661Z,69.83
2024-05-09T01:01:56.714Z,70.22
2024-05-09T01:04:27.877Z,70.32
2024-05-09T01:06:59.333Z,70.29
2024-05-09T01:09:30.469Z,71.47
2024-05-09T01:12:02.028Z,71.56
2024-05-09T01:14:33.256Z,71.69
2024-05-09T01:17:04.740Z,72.35
2024-05-09T01:19:36.546Z,72.11
2024-05-09T01:22:08.265Z,71.33
2024-05-09T01:24:39.227Z,70.71
2024-05-09T01:27:10.595Z,70.79
2024-05-09T01:29:41.536Z,69.08
2024-05-09T01:32:13.083Z,69.71
2024-05-09T01:34:44.255Z,69.78
2024-05-09T01:37:15.643Z,70.45
2024-05-09T01:39:46.548Z,70.10
2024-05-09T01:42:18.808Z,71.09
2024-05-09T01:44:49.739Z,71.09
2024-05-09T01:47:21.347Z,71.83
2024-05-09T01:49:52.451Z,71.65
2024-05-09T01:52:23.908Z,71.42
2024-05-09T01:54:54.899Z,71.01
2024-05-09T01:57:26.287Z,71.56
2024-05-09T01:59:57.296Z,70.93
2024-05-09T02:02:28.844Z,70.46
2024-05-09T02:05:00.056Z,71.25
2024-05-09T02:07:31.828Z,70.20
2024-05-09T02:10:06.591Z,70.28
2024-05-09T02:12:40.428Z,71.21
2024-05-09T02:15:11.693Z,69.92
2024-05-09T02:17:43.226Z,69.05
2024-05-09T02:20:22.542Z,68.54
2024-05-09T02:22:59.886Z,68.95
2024-05-09T02:25:30.975Z,69.02
2024-05-09T02:28:02.732Z,67.79
2024-05-09T02:30:39.675Z,68.62
2024-05-09T02:33:14.524Z,67.53
2024-05-09T02:35:46.569Z,67.34
2024-05-09T02:38:15.425Z,67.90
2024-05-09T02:40:46.517Z,68.25
2024-05-09T02:43:15.358Z,67.46
2024-05-09T02:45:46.352Z,67.26
2024-05-09T02:48:15.333Z,67.44
2024-05-09T02:50:46.620Z,67.42
2024-05-09T02:53:16.038Z,68.28
2024-05-09T02:55:47.218Z,67.83
2024-05-09T02:58:16.008Z,67.32
2024-05-09T03:00:46.953Z,67.32
2024-05-09T03:03:16.097Z,67.56
2024-05-09T03:05:48.238Z,67.83
2024-05-09T03:08:17.135Z,67.08
2024-05-09T03:10:48.053Z,67.29
2024-05-09T03:13:17.445Z,67.40
2024-05-09T03:15:48.820Z,66.60
2024-05-09T03:18:17.839Z,66.05
2024-05-09T03:20:49.152Z,66.59
2024-05-09T03:23:17.994Z,66.34
2024-05-09T03:25:49.005Z,66.59
2024-05-09T03:28:17.866Z,66.44
2024-05-09T03:30:49.100Z,66.22
2024-05-09T03:33:19.785Z,66.65
2024-05-09T03:35:52.437Z,65.90
2024-05-09T03:38:23.927Z,65.73
2024-05-09T03:40:55.654Z,65.67
2024-05-09T03:43:27.231Z,65.68
2024-05-09T03:45:58.219Z,65.30
2024-05-09T03:48:27.124Z,65.40
2024-05-09T03:50:58.122Z,65.25
2024-05-09T03:53:27.073Z,65.50
2024-05-09T03:55:58.463Z,65.17
2024-05-09T03:58:27.416Z,64.14
2024-05-09T04:00:58.498Z,63.55
2024-05-09T04:03:27.677Z,63.10
2024-05-09T04:05:59.082Z,62.26
2024-05-09T04:08:27.885Z,61.96
2024-05-09T04:10:59.107Z,62.03
2024-05-09T04:13:28.227Z,61.86
2024-05-09T04:15:59.183Z,60.98
2024-05-09T04:18:28.418Z,61.13
2024-05-09T04:20:59.664Z,60.24
2024-05-09T04:23:28.638Z,60.05
2024-05-09T04:25:59.713Z,59.46
2024-05-09T04:28:28.543Z,58.48
2024-05-09T04:30:59.428Z,57.77
2024-05-09T04:33:28.592Z,58.10
2024-05-09T04:35:59.671Z,58.21
2024-05-09T04:38:30.362Z,58.16
2024-05-09T04:41:02.166Z,57.81
2024-05-09T04:43:31.078Z,57.13
2024-05-09T04:46:02.243Z,57.58
2024-05-09T04:48:31.366Z,56.58
2024-05-09T04:51:05.455Z,56.46
2024-05-09T04:53:34.422Z,56.64
2024-05-09T04:56:05.520Z,56.86
2024-05-09T04:58:34.302Z,56.89
2024-05-09T05:01:05.285Z,56.11
2024-05-09T05:03:34.298Z,56.34
2024-05-09T05:06:05.614Z,55.17
2024-05-09T05:08:35.661Z,54.95
2024-05-09T05:11:06.648Z,55.75
2024-05-09T05:13:39.434Z,55.47
2024-05-09T05:16:12.010Z,53.48
2024-05-09T05:18:41.289Z,54.26
2024-05-09T05:21:12.495Z,53.13
2024-05-09T05:23:41.743Z,52.89
2024-05-09T05:26:16.296Z,52.17
2024-05-09T05:28:45.254Z,51.78
2024-05-09T05:31:17.986Z,51.71
2024-05-09T05:33:49.329Z,52.52
2024-05-09T05:36:20.807Z,51.68
2024-05-09T05:38:49.745Z,51.02
2024-05-09T05:41:20.816Z,49.26
2024-05-09T05:43:49.843Z,48.61
2024-05-09T05:46:20.929Z,48.87
2024-05-09T05:48:49.932Z,46.82
2024-05-09T05:51:21.090Z,46.70
2024-05-09T05:53:50.257Z,45.54
2024-05-09T05:56:21.808Z,45.71
2024-05-09T05:58:51.635Z,43.88
2024-05-09T06:01:22.699Z,42.37
2024-05-09T06:03:51.755Z,40.48
2024-05-09T06:06:22.855Z,37.78
2024-05-09T06:08:52.762Z,37.67
2024-05-09T06:11:24.076Z,36.56
2024-05-09T06:13:53.295Z,37.21
2024-05-09T06:16:24.448Z,36.63
2024-05-09T06:18:53.866Z,37.99
2024-05-09T06:21:25.034Z,36.83
2024-05-09T06:23:55.143Z,37.16
2024-05-09T06:26:26.143Z,37.38
2024-05-09T06:28:55.490Z,36.65
2024-05-09T06:31:27.571Z,36.61
2024-05-09T06:33:57.352Z,36.68
2024-05-09T06:36:28.393Z,35.68
2024-05-09T06:38:57.386Z,35.56
2024-05-09T06:41:28.526Z,34.76
2024-05-09T06:43:58.285Z,33.14
2024-05-09T06:46:29.966Z,29.96
2024-05-09T06:49:04.583Z,28.56
2024-05-09T06:51:39.082Z,28.30
2024-05-09T06:54:08.524Z,28.02
2024-05-09T06:56:39.775Z,26.52
2024-05-09T06:59:08.743Z,26.56
2024-05-09T07:01:40.110Z,25.19
2024-05-09T07:04:09.106Z,26.19
2024-05-09T07:06:40.328Z,27.18
2024-05-09T07:09:09.170Z,27.45
2024-05-09T07:11:40.543Z,27.57
2024-05-09T07:14:11.000Z,29.32
2024-05-09T07:16:41.816Z,30.27
2024-05-09T07:19:10.617Z,29.88
2024-05-09T07:21:42.102Z,30.57
2024-05-09T07:24:11.215Z,29.11
2024-05-09T07:26:42.177Z,29.09
2024-05-09T07:29:11.569Z,28.55
2024-05-09T07:31:42.612Z,28.52
2024-05-09T07:34:12.142Z,28.12
2024-05-09T07:36:43.264Z,27.15
2024-05-09T07:39:12.186Z,28.27
2024-05-09T07:41:43.386Z,29.14
2024-05-09T07:44:12.218Z,29.68
2024-05-09T07:50:55.840Z,29.68
2024-05-09T07:54:37.723Z,26.24
2024-05-09T07:57:08.962Z,23.91
2024-05-09T07:59:39.492Z,27.27
2024-05-09T08:02:11.102Z,29.52
2024-05-09T08:04:40.367Z,29.33
2024-05-09T08:07:11.582Z,28.08
2024-05-09T08:09:40.512Z,25.55
2024-05-09T08:12:12.942Z,27.92
2024-05-09T08:14:41.856Z,27.42
2024-05-09T08:17:13.371Z,27.99
2024-05-09T08:19:42.351Z,29.14
2024-05-09T08:22:13.558Z,28.49
2024-05-09T08:24:47.005Z,27.85
2024-05-09T08:27:18.327Z,26.29
2024-05-09T08:29:47.240Z,26.80
2024-05-09T08:32:18.286Z,28.20
2024-05-09T08:34:47.295Z,30.67
2024-05-09T08:37:22.418Z,30.11
2024-05-09T08:39:53.574Z,28.08
2024-05-09T08:42:26.578Z,27.72
2024-05-09T08:44:55.441Z,29.50
2024-05-09T08:47:27.369Z,28.30
2024-05-09T08:49:59.254Z,27.22
2024-05-09T08:52:30.434Z,26.99
2024-05-09T08:55:00.951Z,26.38
2024-05-09T08:57:34.107Z,27.28
2024-05-09T09:00:10.306Z,27.04
2024-05-09T09:02:47.554Z,26.50
2024-05-09T09:05:21.477Z,25.91
2024-05-09T09:07:52.530Z,28.18
2024-05-09T09:10:29.598Z,27.31
2024-05-09T09:13:09.902Z,29.11
2024-05-09T09:15:52.173Z,30.02
2024-05-09T09:18:23.309Z,29.56
2024-05-09T09:20:52.465Z,26.70
2024-05-09T09:23:23.617Z,25.40
2024-05-09T09:25:52.602Z,25.54
2024-05-09T09:28:27.098Z,27.70
2024-05-09T09:31:03.368Z,27.87
2024-05-09T09:33:36.321Z,28.47
2024-05-09T09:36:08.402Z,27.83
2024-05-09T09:38:40.813Z,26.83
2024-05-09T09:41:11.042Z,25.90
2024-05-09T09:43:45.983Z,26.10
2024-05-09T09:46:16.084Z,28.41
2024-05-09T09:48:48.100Z,27.94
2024-05-09T09:51:20.141Z,27.49
2024-05-09T09:53:54.278Z,27.32
2024-05-09T09:56:24.643Z,27.89
2024-05-09T09:58:57.916Z,28.22
2024-05-09T10:01:29.974Z,28.09
2024-05-09T10:04:01.723Z,27.17
2024-05-09T10:06:31.521Z,27.13
2024-05-09T10:09:03.177Z,27.03
2024-05-09T10:11:34.892Z,25.97
2024-05-09T10:14:10.108Z,26.03
2024-05-09T10:16:45.327Z,25.61
2024-05-09T10:19:29.902Z,26.67
2024-05-09T10:22:03.944Z,27.47
2024-05-09T10:24:55.132Z,26.97
2024-05-09T10:27:31.041Z,26.36
2024-05-09T10:30:07.007Z,27.57
2024-05-09T10:32:41.801Z,26.91
2024-05-09T10:35:15.234Z,26.70
2024-05-09T10:37:46.409Z,28.17
2024-05-09T10:40:26.582Z,26.24
2024-05-09T10:43:04.499Z,26.21
2024-05-09T10:45:38.763Z,28.45
2024-05-09T10:48:09.325Z,28.56
2024-05-09T10:50:43.970Z,27.29
2024-05-09T10:53:13.209Z,28.35
2024-05-09T10:55:44.157Z,27.48
2024-05-09T10:58:19.399Z,27.18
2024-05-09T11:00:50.721Z,26.81
2024-05-09T11:03:20.129Z,27.66
2024-05-09T11:05:52.137Z,26.96
2024-05-09T11:08:22.717Z,28.33
2024-05-09T11:10:59.679Z,26.36
2024-05-09T11:13:33.351Z,27.00
2024-05-09T11:16:05.201Z,26.93
2024-05-09T11:18:38.182Z,26.18
2024-05-09T11:21:15.968Z,25.58
2024-05-09T11:23:44.916Z,26.03
2024-05-09T11:26:19.514Z,25.89
2024-05-09T11:28:48.492Z,26.90
2024-05-09T11:31:20.268Z,27.35
2024-05-09T11:33:49.686Z,27.32
2024-05-09T11:36:20.826Z,26.54
2024-05-09T11:38:49.736Z,25.62
2024-05-09T11:41:21.906Z,26.16
2024-05-09T11:43:54.071Z,25.65
2024-05-09T11:46:25.425Z,24.70
2024-05-09T11:48:54.616Z,25.46
2024-05-09T11:51:25.845Z,25.08
2024-05-09T11:53:54.736Z,26.25
2024-05-09T11:56:26.153Z,26.48
2024-05-09T11:58:55.155Z,25.99
2024-05-09T12:01:29.469Z,25.83
2024-05-09T12:03:58.760Z,26.25
2024-05-09T12:06:31.810Z,27.23
2024-05-09T12:09:00.727Z,28.06
2024-05-09T12:11:32.250Z,28.41
2024-05-09T12:14:01.365Z,27.85
2024-05-09T12:16:32.694Z,29.32
2024-05-09T12:19:02.257Z,30.41
2024-05-09T12:21:33.579Z,30.08
2024-05-09T12:24:02.574Z,29.77
2024-05-09T12:26:33.863Z,29.92
2024-05-09T12:29:02.764Z,31.10
2024-05-09T12:31:34.004Z,31.32
2024-05-09T12:34:03.219Z,32.27
2024-05-09T12:36:35.201Z,32.11
2024-05-09T12:39:06.429Z,32.41
2024-05-09T12:41:37.498Z,34.11
2024-05-09T12:44:06.532Z,34.13
2024-05-09T12:46:37.770Z,33.61
2024-05-09T12:49:06.982Z,32.77
2024-05-09T12:51:38.471Z,32.32
2024-05-09T12:54:07.281Z,32.47
2024-05-09T12:56:38.327Z,31.89
2024-05-09T12:59:07.054Z,31.45
2024-05-09T13:01:38.253Z,31.90
2024-05-09T13:04:07.233Z,31.67
2024-05-09T13:06:38.375Z,31.96
2024-05-09T13:09:07.406Z,33.18
2024-05-09T13:11:38.940Z,33.74
2024-05-09T13:14:08.191Z,35.41
2024-05-09T13:16:39.361Z,36.65
2024-05-09T13:19:08.540Z,37.69
2024-05-09T13:21:39.966Z,38.01
2024-05-09T13:24:08.865Z,37.91
2024-05-09T13:26:39.901Z,41.67
2024-05-09T13:29:08.744Z,43.40
2024-05-09T13:31:39.754Z,44.37
2024-05-09T13:34:08.654Z,44.88
2024-05-09T13:36:39.950Z,44.57
2024-05-09T13:39:08.759Z,46.40
2024-05-09T13:41:39.901Z,45.68
2024-05-09T13:44:09.812Z,45.56
2024-05-09T13:46:40.987Z,46.83
2024-05-09T13:49:12.533Z,47.49
2024-05-09T13:51:43.835Z,47.23
2024-05-09T13:54:12.687Z,45.87
2024-05-09T13:56:44.812Z,45.93
2024-05-09T13:59:13.694Z,46.14
2024-05-09T14:01:44.810Z,46.94
2024-05-09T14:04:14.229Z,50.37
2024-05-09T14:06:45.545Z,49.80
2024-05-09T14:09:14.450Z,51.75
2024-05-09T14:11:45.895Z,49.55
2024-05-09T14:14:14.881Z,50.44
2024-05-09T14:16:46.625Z,49.31
2024-05-09T14:19:15.788Z,47.41
2024-05-09T14:21:47.018Z,44.50
2024-05-09T14:24:16.506Z,44.74
2024-05-09T14:26:47.630Z,48.71
2024-05-09T14:29:16.351Z,49.70
2024-05-09T14:31:47.489Z,51.33
2024-05-09T14:34:16.614Z,51.69
2024-05-09T14:36:48.129Z,49.54
2024-05-09T14:39:18.864Z,48.86
2024-05-09T14:41:50.003Z,48.52
2024-05-09T14:44:18.805Z,47.37
2024-05-09T14:46:49.828Z,48.23
2024-05-09T14:49:19.089Z,48.26
2024-05-09T14:51:51.527Z,47.11
2024-05-09T14:54:20.415Z,45.65
2024-05-09T14:56:51.644Z,46.16
2024-05-09T14:59:20.915Z,46.10
2024-05-09T15:01:52.659Z,48.80
2024-05-09T15:04:22.062Z,47.04
2024-05-09T15:06:53.266Z,45.48
2024-05-09T15:09:22.770Z,47.36
2024-05-09T15:11:54.863Z,48.54
2024-05-09T15:14:24.862Z,48.28
2024-05-09T15:16:57.216Z,46.64
2024-05-09T15:19:26.366Z,45.73
2024-05-09T15:21:57.588Z,45.38
2024-05-09T15:24:26.500Z,46.09
2024-05-09T15:26:57.577Z,48.65
2024-05-09T15:29:26.422Z,48.92
2024-05-09T15:31:57.483Z,47.79
2024-05-09T15:34:27.036Z,47.58
2024-05-09T15:36:57.847Z,46.54
2024-05-09T15:39:30.272Z,45.69
2024-05-09T15:42:01.434Z,45.04
2024-05-09T15:44:30.475Z,46.67
2024-05-09T15:47:01.578Z,45.82
2024-05-09T15:49:30.604Z,45.89
2024-05-09T15:52:01.880Z,46.17
2024-05-09T15:54:30.868Z,47.15
2024-05-09T15:57:01.896Z,48.17
2024-05-09T15:59:30.699Z,47.95
2024-05-09T16:02:02.336Z,47.27
2024-05-09T16:04:31.569Z,47.56
2024-05-09T16:07:02.877Z,47.01
2024-05-09T16:09:31.842Z,48.20
2024-05-09T16:12:02.866Z,47.22
2024-05-09T16:14:31.915Z,47.63
2024-05-09T16:17:03.026Z,46.84
2024-05-09T16:19:32.054Z,46.25
2024-05-09T16:22:03.156Z,46.48
2024-05-09T16:24:32.146Z,46.28
2024-05-09T16:27:03.388Z,45.99
2024-05-09T16:29:32.326Z,46.82
2024-05-09T16:32:03.523Z,46.76
2024-05-09T16:34:32.421Z,48.21
2024-05-09T16:37:04.917Z,49.37
2024-05-09T16:39:33.954Z,49.40
2024-05-09T16:42:05.300Z,49.01
2024-05-09T16:44:35.596Z,50.96
2024-05-09T16:47:06.909Z,50.47
2024-05-09T16:49:35.923Z,50.40
2024-05-09T16:52:07.054Z,51.97
2024-05-09T16:54:36.088Z,51.54
2024-05-09T16:57:07.485Z,51.03
2024-05-09T16:59:36.583Z,51.47
2024-05-09T17:02:08.061Z,48.88
2024-05-09T17:04:37.173Z,45.92
2024-05-09T17:07:09.492Z,45.19
2024-05-09T17:09:40.001Z,44.90
2024-05-09T17:12:11.507Z,44.43
2024-05-09T17:14:43.622Z,43.77
2024-05-09T17:17:14.986Z,43.09
2024-05-09T17:19:47.593Z,42.93
2024-05-09T17:22:16.503Z,42.61
2024-05-09T17:24:48.196Z,42.27
2024-05-09T17:27:16.876Z,42.16
2024-05-09T17:29:49.468Z,42.72
2024-05-09T17:32:18.097Z,43.27
2024-05-09T17:34:49.681Z,43.31
2024-05-09T17:37:18.572Z,43.46
2024-05-09T17:39:50.299Z,44.11
2024-05-09T17:42:18.732Z,44.70
2024-05-09T17:44:50.212Z,45.06
2024-05-09T17:47:18.589Z,45.23
2024-05-09T17:49:50.215Z,46.37
2024-05-09T17:52:19.004Z,47.17
2024-05-09T17:54:50.597Z,46.98
2024-05-09T17:57:19.458Z,46.96
2024-05-09T17:59:52.146Z,47.91
2024-05-09T18:02:23.552Z,49.35
2024-05-09T18:04:52.822Z,51.96
2024-05-09T18:07:23.946Z,49.62
2024-05-09T18:09:52.907Z,52.25
2024-05-09T18:12:23.903Z,51.88
2024-05-09T18:14:53.009Z,52.34
2024-05-09T18:17:25.849Z,53.90
2024-05-09T18:19:55.048Z,54.22
2024-05-09T18:22:26.587Z,55.71
2024-05-09T18:24:55.547Z,56.97
2024-05-09T18:27:26.979Z,57.69
2024-05-09T18:29:56.084Z,56.61
2024-05-09T18:32:27.403Z,57.35
2024-05-09T18:34:56.455Z,57.45
2024-05-09T18:37:27.805Z,56.92
2024-05-09T18:39:56.930Z,58.16
2024-05-09T18:42:28.321Z,58.66
2024-05-09T18:44:57.231Z,59.00
2024-05-09T18:47:28.819Z,59.14
2024-05-09T18:49:57.911Z,59.49
2024-05-09T18:52:29.121Z,59.28
2024-05-09T18:54:58.312Z,60.35
2024-05-09T18:57:30.256Z,60.08
2024-05-09T18:59:59.256Z,60.84
2024-05-09T19:02:30.705Z,61.36
2024-05-09T19:04:59.829Z,59.15
2024-05-09T19:07:31.380Z,57.92
2024-05-09T19:10:00.335Z,55.25
2024-05-09T19:12:31.908Z,55.25
2024-05-09T19:15:00.780Z,55.58
2024-05-09T19:17:32.734Z,55.45
2024-05-09T19:20:02.010Z,57.17
2024-05-09T19:22:33.371Z,54.58
2024-05-09T19:25:02.451Z,55.17
2024-05-09T19:27:33.760Z,54.43
2024-05-09T19:32:34.149Z,52.65
2024-05-09T19:35:03.310Z,54.19
2024-05-09T19:37:34.503Z,53.92
2024-05-09T19:40:06.867Z,54.27
2024-05-09T19:42:40.340Z,53.93
2024-05-09T19:45:09.624Z,54.15
2024-05-09T19:47:41.512Z,54.24
2024-05-09T19:50:11.227Z,51.85
2024-05-09T19:52:47.205Z,52.37
2024-05-09T19:55:16.567Z,52.73
2024-05-09T19:57:48.237Z,52.53
2024-05-09T20:00:22.266Z,52.93
2024-05-09T20:03:00.978Z,52.81
2024-05-09T20:05:31.320Z,51.77
2024-05-09T20:08:02.650Z,52.10
2024-05-09T20:10:34.203Z,52.43
2024-05-09T20:13:08.410Z,52.33
2024-05-09T20:15:38.347Z,51.77
2024-05-09T20:18:10.271Z,53.38
2024-05-09T20:20:42.507Z,51.67
2024-05-09T20:23:16.206Z,53.13
2024-05-09T20:25:45.187Z,53.47
2024-05-09T20:28:16.676Z,52.76
2024-05-09T20:30:45.620Z,52.85
2024-05-09T20:33:16.960Z,53.00
2024-05-09T20:35:47.331Z,53.39
2024-05-09T20:38:18.643Z,53.98
2024-05-09T20:40:47.741Z,52.89
2024-05-09T20:43:19.254Z,52.94
2024-05-09T20:45:48.329Z,53.13
2024-05-09T20:48:19.923Z,52.51
2024-05-09T20:50:49.555Z,52.77
2024-05-09T20:53:21.544Z,53.96
2024-05-09T20:55:50.472Z,52.58
2024-05-09T20:58:21.805Z,52.73
2024-05-09T21:00:51.002Z,52.48
2024-05-09T21:03:22.733Z,51.87
2024-05-09T21:05:51.811Z,52.27
2024-05-09T21:08:23.847Z,52.84
2024-05-09T21:10:53.110Z,52.39
2024-05-09T21:13:24.478Z,52.54
2024-05-09T21:15:53.743Z,51.44
2024-05-09T21:18:24.887Z,52.27
2024-05-09T21:20:53.988Z,50.85
2024-05-09T21:23:24.993Z,50.94
2024-05-09T21:25:53.826Z,50.76
2024-05-09T21:28:25.158Z,50.96
2024-05-09T21:30:54.582Z,50.38
2024-05-09T21:33:25.714Z,50.07
2024-05-09T21:35:55.610Z,50.52
2024-05-09T21:38:26.951Z,50.46
2024-05-09T21:40:56.240Z,50.24
2024-05-09T21:43:31.632Z,50.12
2024-05-09T21:46:00.646Z,50.32
2024-05-09T21:48:31.783Z,49.78
2024-05-09T21:51:00.718Z,50.33
2024-05-09T21:53:32.351Z,49.45
2024-05-09T21:56:02.091Z,49.31
2024-05-09T21:58:33.244Z,50.13
2024-05-09T22:01:03.826Z,49.40
2024-05-09T22:03:35.529Z,49.83
2024-05-09T22:06:04.986Z,49.39
2024-05-09T22:08:36.066Z,49.59
2024-05-09T22:11:05.420Z,49.99
2024-05-09T22:13:36.569Z,50.76
2024-05-09T22:16:05.886Z,51.07
2024-05-09T22:18:36.994Z,50.46
2024-05-09T22:21:05.845Z,51.05
2024-05-09T22:23:36.812Z,50.46
2024-05-09T22:26:05.739Z,51.02
2024-05-09T22:28:37.021Z,51.22
2024-05-09T22:31:05.899Z,51.06
2024-05-09T22:33:37.284Z,50.77
2024-05-09T22:36:08.735Z,51.53
2024-05-09T22:38:39.807Z,51.17
2024-05-09T22:41:08.718Z,50.76
2024-05-09T22:43:39.928Z,50.91
2024-05-09T22:46:09.201Z,51.17
2024-05-09T22:48:40.384Z,50.52
2024-05-09T22:51:09.234Z,50.84
2024-05-09T22:53:40.270Z,50.59
2024-05-09T22:56:09.054Z,50.88
2024-05-09T22:58:40.055Z,51.40
2024-05-09T23:01:15.596Z,51.18
2024-05-09T23:03:46.885Z,50.58
2024-05-09T23:06:16.202Z,51.03
2024-05-09T23:08:47.277Z,50.95
2024-05-09T23:11:16.399Z,51.27
2024-05-09T23:13:47.410Z,51.28
2024-05-09T23:16:16.340Z,51.35
2024-05-09T23:18:47.432Z,51.39
2024-05-09T23:21:16.337Z,51.40
2024-05-09T23:23:47.195Z,51.17
2024-05-09T23:26:16.024Z,51.70
2024-05-09T23:28:47.078Z,51.37
2024-05-09T23:31:15.939Z,51.88
2024-05-09T23:33:50.242Z,51.48
2024-05-09T23:36:19.365Z,52.00
2024-05-09T23:38:51.656Z,51.28
2024-05-09T23:41:20.640Z,51.53
2024-05-09T23:43:51.624Z,51.52
2024-05-09T23:46:20.533Z,51.49
2024-05-09T23:48:51.644Z,51.18
2024-05-09T23:51:20.911Z,51.57
2024-05-09T23:53:51.904Z,51.66
2024-05-09T23:56:21.717Z,51.53
2024-05-09T23:58:52.717Z,51.46
